sensor_id;sensor_type;location;lat;lon;timestamp;pressure;altitude;pressure_sealevel;temperature;humidity
62694;BME280;48759;52.544;13.418;2023-02-13T00:00:45;103089.97;;;7.88;100.00
62694;BME280;48759;52.544;13.418;2023-02-13T00:03:12;103085.38;;;7.89;100.00
62694;BME280;48759;52.544;13.418;2023-02-13T00:05:40;103088.91;;;7.68;100.00
62694;BME280;48759;52.544;13.418;2023-02-13T00:08:07;103088.03;;;8.00;100.00
62694;BME280;48759;52.544;13.418;2023-02-13T00:10:33;103088.34;;;7.86;100.00
62694;BME280;48759;52.544;13.418;2023-02-13T00:13:00;103094.63;;;8.08;100.00
62694;BME280;48759;52.544;13.418;2023-02-13T00:15:27;103091.06;;;7.97;100.00
62694;BME280;48759;52.544;13.418;2023-02-13T00:17:53;103090.56;;;7.92;100.00
62694;BME280;48759;52.544;13.418;2023-02-13T00:20:20;103086.25;;;7.46;100.00
62694;BME280;48759;52.544;13.418;2023-02-13T00:22:48;103094.31;;;7.91;100.00
62694;BME280;48759;52.544;13.418;2023-02-13T00:25:15;103095.72;;;8.06;100.00
62694;BME280;48759;52.544;13.418;2023-02-13T00:27:42;103103.44;;;7.48;100.00
62694;BME280;48759;52.544;13.418;2023-02-13T00:30:10;103091.72;;;7.57;100.00
62694;BME280;48759;52.544;13.418;2023-02-13T00:32:36;103091.63;;;8.12;100.00
62694;BME280;48759;52.544;13.418;2023-02-13T00:35:03;103083.88;;;8.17;100.00
62694;BME280;48759;52.544;13.418;2023-02-13T00:37:30;103088.44;;;8.27;100.00
62694;BME280;48759;52.544;13.418;2023-02-13T00:39:59;103087.22;;;8.41;100.00
62694;BME280;48759;52.544;13.418;2023-02-13T00:42:26;103095.47;;;8.09;100.00
62694;BME280;48759;52.544;13.418;2023-02-13T00:44:53;103091.34;;;7.83;100.00
62694;BME280;48759;52.544;13.418;2023-02-13T00:47:20;103088.63;;;8.15;100.00
62694;BME280;48759;52.544;13.418;2023-02-13T00:49:46;103082.88;;;8.38;100.00
62694;BME280;48759;52.544;13.418;2023-02-13T00:52:13;103081.03;;;8.07;100.00
62694;BME280;48759;52.544;13.418;2023-02-13T00:54:40;103078.28;;;8.07;100.00
62694;BME280;48759;52.544;13.418;2023-02-13T00:57:08;103079.94;;;7.98;100.00
62694;BME280;48759;52.544;13.418;2023-02-13T00:59:34;103081.31;;;8.45;100.00
62694;BME280;48759;52.544;13.418;2023-02-13T01:02:01;103078.72;;;8.23;100.00
62694;BME280;48759;52.544;13.418;2023-02-13T01:04:28;103085.84;;;7.94;100.00
62694;BME280;48759;52.544;13.418;2023-02-13T01:06:54;103084.56;;;7.98;100.00
62694;BME280;48759;52.544;13.418;2023-02-13T01:09:21;103093.31;;;8.44;100.00
62694;BME280;48759;52.544;13.418;2023-02-13T01:11:47;103091.31;;;7.94;100.00
62694;BME280;48759;52.544;13.418;2023-02-13T01:14:16;103092.41;;;7.71;100.00
62694;BME280;48759;52.544;13.418;2023-02-13T01:16:42;103094.31;;;7.91;100.00
62694;BME280;48759;52.544;13.418;2023-02-13T01:19:09;103090.31;;;7.95;100.00
62694;BME280;48759;52.544;13.418;2023-02-13T01:21:35;103092.94;;;7.64;100.00
62694;BME280;48759;52.544;13.418;2023-02-13T01:24:03;103089.78;;;8.01;100.00
62694;BME280;48759;52.544;13.418;2023-02-13T01:26:30;103081.31;;;7.72;100.00
62694;BME280;48759;52.544;13.418;2023-02-13T01:28:57;103083.88;;;7.85;100.00
62694;BME280;48759;52.544;13.418;2023-02-13T01:31:25;103091.66;;;7.68;100.00
62694;BME280;48759;52.544;13.418;2023-02-13T01:33:55;103081.59;;;7.58;100.00
62694;BME280;48759;52.544;13.418;2023-02-13T01:36:23;103089.25;;;7.75;100.00
62694;BME280;48759;52.544;13.418;2023-02-13T01:38:52;103095.16;;;7.59;100.00
62694;BME280;48759;52.544;13.418;2023-02-13T01:41:19;103077.53;;;7.84;100.00
62694;BME280;48759;52.544;13.418;2023-02-13T01:43:49;103083.13;;;7.51;100.00
62694;BME280;48759;52.544;13.418;2023-02-13T01:46:20;103083.78;;;7.75;100.00
62694;BME280;48759;52.544;13.418;2023-02-13T01:48:50;103078.72;;;7.91;100.00
62694;BME280;48759;52.544;13.418;2023-02-13T01:51:21;103074.69;;;7.75;100.00
62694;BME280;48759;52.544;13.418;2023-02-13T01:53:53;103084.16;;;8.34;100.00
62694;BME280;48759;52.544;13.418;2023-02-13T01:56:24;103074.22;;;7.69;100.00
62694;BME280;48759;52.544;13.418;2023-02-13T01:58:56;103078.47;;;7.62;100.00
62694;BME280;48759;52.544;13.418;2023-02-13T02:01:25;103077.97;;;7.68;100.00
62694;BME280;48759;52.544;13.418;2023-02-13T02:03:56;103084.06;;;7.72;100.00
62694;BME280;48759;52.544;13.418;2023-02-13T02:06:26;103081.38;;;7.82;100.00
62694;BME280;48759;52.544;13.418;2023-02-13T02:08:56;103082.34;;;8.24;100.00
62694;BME280;48759;52.544;13.418;2023-02-13T02:11:31;103075.16;;;8.12;100.00
62694;BME280;48759;52.544;13.418;2023-02-13T02:14:01;103091.97;;;8.18;100.00
62694;BME280;48759;52.544;13.418;2023-02-13T02:16:29;103082.13;;;7.84;100.00
62694;BME280;48759;52.544;13.418;2023-02-13T02:18:58;103086.09;;;7.91;100.00
62694;BME280;48759;52.544;13.418;2023-02-13T02:21:48;103075.53;;;8.18;100.00
62694;BME280;48759;52.544;13.418;2023-02-13T02:24:42;103087.44;;;7.96;100.00
62694;BME280;48759;52.544;13.418;2023-02-13T02:27:36;103084.81;;;8.48;100.00
62694;BME280;48759;52.544;13.418;2023-02-13T02:30:37;103087.50;;;8.06;100.00
62694;BME280;48759;52.544;13.418;2023-02-13T02:33:18;103083.50;;;8.10;100.00
62694;BME280;48759;52.544;13.418;2023-02-13T02:35:53;103090.47;;;7.82;100.00
62694;BME280;48759;52.544;13.418;2023-02-13T02:38:40;103081.25;;;7.83;100.00
62694;BME280;48759;52.544;13.418;2023-02-13T02:41:14;103085.53;;;7.76;100.00
62694;BME280;48759;52.544;13.418;2023-02-13T02:44:07;103089.00;;;7.46;100.00
62694;BME280;48759;52.544;13.418;2023-02-13T02:46:46;103093.63;;;7.78;100.00
62694;BME280;48759;52.544;13.418;2023-02-13T02:49:39;103090.41;;;7.73;100.00
62694;BME280;48759;52.544;13.418;2023-02-13T02:52:30;103098.75;;;8.03;100.00
62694;BME280;48759;52.544;13.418;2023-02-13T02:55:14;103098.25;;;7.98;100.00
62694;BME280;48759;52.544;13.418;2023-02-13T02:57:48;103094.22;;;8.13;100.00
62694;BME280;48759;52.544;13.418;2023-02-13T03:00:37;103095.44;;;7.56;100.00
62694;BME280;48759;52.544;13.418;2023-02-13T03:03:23;103090.91;;;7.23;100.00
62694;BME280;48759;52.544;13.418;2023-02-13T03:06:21;103093.16;;;7.73;100.00
62694;BME280;48759;52.544;13.418;2023-02-13T03:08:52;103093.88;;;7.75;100.00
62694;BME280;48759;52.544;13.418;2023-02-13T03:11:37;103091.97;;;7.54;100.00
62694;BME280;48759;52.544;13.418;2023-02-13T03:14:24;103094.19;;;7.92;100.00
62694;BME280;48759;52.544;13.418;2023-02-13T03:16:52;103092.88;;;7.76;100.00
62694;BME280;48759;52.544;13.418;2023-02-13T03:19:45;103092.34;;;7.82;100.00
62694;BME280;48759;52.544;13.418;2023-02-13T03:22:40;103095.38;;;7.79;100.00
62694;BME280;48759;52.544;13.418;2023-02-13T03:25:14;103091.34;;;7.83;100.00
62694;BME280;48759;52.544;13.418;2023-02-13T03:27:47;103090.75;;;8.11;100.00
62694;BME280;48759;52.544;13.418;2023-02-13T03:30:43;103089.88;;;7.79;100.00
62694;BME280;48759;52.544;13.418;2023-02-13T03:33:24;103096.63;;;7.75;100.00
62694;BME280;48759;52.544;13.418;2023-02-13T03:36:01;103088.56;;;7.62;100.00
62694;BME280;48759;52.544;13.418;2023-02-13T03:38:56;103092.44;;;7.91;100.00
62694;BME280;48759;52.544;13.418;2023-02-13T03:41:28;103087.09;;;7.90;100.00
62694;BME280;48759;52.544;13.418;2023-02-13T03:44:03;103096.84;;;7.83;100.00
62694;BME280;48759;52.544;13.418;2023-02-13T03:46:35;103088.41;;;7.75;100.00
62694;BME280;48759;52.544;13.418;2023-02-13T03:49:05;103082.47;;;7.58;100.00
62694;BME280;48759;52.544;13.418;2023-02-13T03:51:53;103085.28;;;7.79;100.00
62694;BME280;48759;52.544;13.418;2023-02-13T03:54:25;103085.63;;;7.86;100.00
62694;BME280;48759;52.544;13.418;2023-02-13T03:57:14;103080.06;;;7.33;100.00
62694;BME280;48759;52.544;13.418;2023-02-13T04:00:04;103090.13;;;7.76;100.00
62694;BME280;48759;52.544;13.418;2023-02-13T04:02:38;103082.13;;;7.84;100.00
62694;BME280;48759;52.544;13.418;2023-02-13T04:05:08;103078.56;;;8.04;100.00
62694;BME280;48759;52.544;13.418;2023-02-13T04:07:38;103078.47;;;7.62;100.00
62694;BME280;48759;52.544;13.418;2023-02-13T04:10:09;103078.06;;;7.78;100.00
62694;BME280;48759;52.544;13.418;2023-02-13T04:12:40;103067.75;;;7.71;100.00
62694;BME280;48759;52.544;13.418;2023-02-13T04:15:15;103067.13;;;7.13;100.00
62694;BME280;48759;52.544;13.418;2023-02-13T04:17:45;103061.34;;;7.49;100.00
62694;BME280;48759;52.544;13.418;2023-02-13T04:20:14;103067.88;;;7.69;100.00
62694;BME280;48759;52.544;13.418;2023-02-13T04:22:41;103061.94;;;7.53;100.00
62694;BME280;48759;52.544;13.418;2023-02-13T04:25:12;103073.97;;;7.73;100.00
62694;BME280;48759;52.544;13.418;2023-02-13T04:27:42;103069.31;;;8.05;100.00
62694;BME280;48759;52.544;13.418;2023-02-13T04:30:10;103069.31;;;8.05;100.00
62694;BME280;48759;52.544;13.418;2023-02-13T04:32:36;103077.94;;;8.00;100.00
62694;BME280;48759;52.544;13.418;2023-02-13T04:35:03;103070.72;;;7.67;100.00
62694;BME280;48759;52.544;13.418;2023-02-13T04:37:30;103072.03;;;7.84;100.00
62694;BME280;48759;52.544;13.418;2023-02-13T04:39:57;103069.25;;;7.63;100.00
62694;BME280;48759;52.544;13.418;2023-02-13T04:42:25;103057.28;;;7.21;100.00
62694;BME280;48759;52.544;13.418;2023-02-13T04:44:52;103056.09;;;7.46;100.00
62694;BME280;48759;52.544;13.418;2023-02-13T04:47:19;103054.38;;;7.34;100.00
62694;BME280;48759;52.544;13.418;2023-02-13T04:49:45;103052.16;;;7.39;100.00
62694;BME280;48759;52.544;13.418;2023-02-13T04:52:12;103052.63;;;7.44;100.00
62694;BME280;48759;52.544;13.418;2023-02-13T04:54:40;103059.66;;;7.04;100.00
62694;BME280;48759;52.544;13.418;2023-02-13T04:57:07;103057.13;;;7.34;100.00
62694;BME280;48759;52.544;13.418;2023-02-13T04:59:35;103056.06;;;7.14;100.00
62694;BME280;48759;52.544;13.418;2023-02-13T05:02:02;103058.88;;;7.35;100.00
62694;BME280;48759;52.544;13.418;2023-02-13T05:04:29;103061.59;;;7.46;100.00
62694;BME280;48759;52.544;13.418;2023-02-13T05:06:55;103061.66;;;7.24;100.00
62694;BME280;48759;52.544;13.418;2023-02-13T05:09:22;103063.91;;;7.08;100.00
62694;BME280;48759;52.544;13.418;2023-02-13T05:11:50;103067.75;;;7.59;100.00
62694;BME280;48759;52.544;13.418;2023-02-13T05:14:17;103062.00;;;7.19;100.00
62694;BME280;48759;52.544;13.418;2023-02-13T05:16:45;103064.91;;;6.96;100.00
62694;BME280;48759;52.544;13.418;2023-02-13T05:19:14;103063.25;;;7.26;100.00
62694;BME280;48759;52.544;13.418;2023-02-13T05:21:40;103064.19;;;6.94;100.00
62694;BME280;48759;52.544;13.418;2023-02-13T05:24:24;103063.03;;;7.07;100.00
62694;BME280;48759;52.544;13.418;2023-02-13T05:26:51;103068.63;;;7.06;100.00
62694;BME280;48759;52.544;13.418;2023-02-13T05:29:18;103062.47;;;7.36;100.00
62694;BME280;48759;52.544;13.418;2023-02-13T05:31:45;103069.81;;;7.35;100.00
62694;BME280;48759;52.544;13.418;2023-02-13T05:34:12;103057.56;;;7.50;100.00
62694;BME280;48759;52.544;13.418;2023-02-13T05:36:38;103064.84;;;7.40;100.00
62694;BME280;48759;52.544;13.418;2023-02-13T05:39:05;103065.56;;;7.42;100.00
62694;BME280;48759;52.544;13.418;2023-02-13T05:41:32;103058.28;;;7.32;100.00
62694;BME280;48759;52.544;13.418;2023-02-13T05:43:59;103061.13;;;7.30;100.00
62694;BME280;48759;52.544;13.418;2023-02-13T05:46:26;103065.38;;;7.23;100.00
62694;BME280;48759;52.544;13.418;2023-02-13T05:48:54;103068.31;;;7.42;100.00
62694;BME280;48759;52.544;13.418;2023-02-13T05:51:20;103070.47;;;7.27;100.00
62694;BME280;48759;52.544;13.418;2023-02-13T05:53:47;103068.38;;;7.20;100.00
62694;BME280;48759;52.544;13.418;2023-02-13T05:56:14;103078.72;;;7.59;100.00
62694;BME280;48759;52.544;13.418;2023-02-13T05:58:41;103075.16;;;7.48;100.00
62694;BME280;48759;52.544;13.418;2023-02-13T06:01:07;103081.75;;;7.45;100.00
62694;BME280;48759;52.544;13.418;2023-02-13T06:03:34;103087.28;;;7.66;100.00
62694;BME280;48759;52.544;13.418;2023-02-13T06:06:03;103086.44;;;7.65;100.00
62694;BME280;48759;52.544;13.418;2023-02-13T06:08:30;103088.66;;;7.28;100.00
62694;BME280;48759;52.544;13.418;2023-02-13T06:10:57;103089.16;;;7.65;100.00
62694;BME280;48759;52.544;13.418;2023-02-13T06:13:26;103093.19;;;7.50;100.00
62694;BME280;48759;52.544;13.418;2023-02-13T06:15:53;103099.28;;;7.65;100.00
62694;BME280;48759;52.544;13.418;2023-02-13T06:18:20;103099.19;;;7.55;100.00
62694;BME280;48759;52.544;13.418;2023-02-13T06:20:47;103095.75;;;7.31;100.00
62694;BME280;48759;52.544;13.418;2023-02-13T06:23:15;103095.03;;;7.18;100.00
62694;BME280;48759;52.544;13.418;2023-02-13T06:25:42;103092.13;;;7.42;100.00
62694;BME280;48759;52.544;13.418;2023-02-13T06:28:09;103096.75;;;7.41;100.00
62694;BME280;48759;52.544;13.418;2023-02-13T06:30:36;103097.78;;;7.61;100.00
62694;BME280;48759;52.544;13.418;2023-02-13T06:33:02;103094.22;;;7.49;100.00
62694;BME280;48759;52.544;13.418;2023-02-13T06:35:29;103098.22;;;8.20;100.00
62694;BME280;48759;52.544;13.418;2023-02-13T06:37:56;103096.22;;;8.11;100.00
62694;BME280;48759;52.544;13.418;2023-02-13T06:40:24;103104.16;;;8.25;100.00
62694;BME280;48759;52.544;13.418;2023-02-13T06:42:50;103096.47;;;7.87;100.00
62694;BME280;48759;52.544;13.418;2023-02-13T06:45:17;103111.03;;;7.88;100.00
62694;BME280;48759;52.544;13.418;2023-02-13T06:47:45;103113.72;;;7.99;100.00
62694;BME280;48759;52.544;13.418;2023-02-13T06:50:14;103110.69;;;8.13;100.00
62694;BME280;48759;52.544;13.418;2023-02-13T06:52:45;103111.66;;;8.23;100.00
62694;BME280;48759;52.544;13.418;2023-02-13T06:55:12;103115.13;;;8.67;100.00
62694;BME280;48759;52.544;13.418;2023-02-13T06:57:40;103112.44;;;8.14;100.00
62694;BME280;48759;52.544;13.418;2023-02-13T07:00:08;103127.06;;;8.35;100.00
62694;BME280;48759;52.544;13.418;2023-02-13T07:02:37;103122.63;;;8.23;100.00
62694;BME280;48759;52.544;13.418;2023-02-13T07:05:04;103117.41;;;8.62;100.00
62694;BME280;48759;52.544;13.418;2023-02-13T07:07:32;103125.84;;;8.28;100.00
62694;BME280;48759;52.544;13.418;2023-02-13T07:09:59;103126.13;;;8.67;100.00
62694;BME280;48759;52.544;13.418;2023-02-13T07:12:33;103125.56;;;8.31;100.00
62694;BME280;48759;52.544;13.418;2023-02-13T07:15:02;103126.78;;;8.59;100.00
62694;BME280;48759;52.544;13.418;2023-02-13T07:17:29;103126.22;;;8.44;100.00
62694;BME280;48759;52.544;13.418;2023-02-13T07:19:56;103130.59;;;7.83;100.00
62694;BME280;48759;52.544;13.418;2023-02-13T07:22:22;103130.53;;;8.05;100.00
62694;BME280;48759;52.544;13.418;2023-02-13T07:24:49;103129.59;;;8.27;100.00
62694;BME280;48759;52.544;13.418;2023-02-13T07:27:16;103139.75;;;8.36;100.00
62694;BME280;48759;52.544;13.418;2023-02-13T07:29:42;103134.81;;;8.30;100.00
62694;BME280;48759;52.544;13.418;2023-02-13T07:32:10;103135.97;;;8.49;100.00
62694;BME280;48759;52.544;13.418;2023-02-13T07:34:37;103134.66;;;8.53;100.00
62694;BME280;48759;52.544;13.418;2023-02-13T07:37:04;103130.41;;;8.60;100.00
62694;BME280;48759;52.544;13.418;2023-02-13T07:39:30;103141.00;;;8.12;100.00
62694;BME280;48759;52.544;13.418;2023-02-13T07:41:57;103137.41;;;8.00;100.00
62694;BME280;48759;52.544;13.418;2023-02-13T07:44:24;103144.50;;;8.02;100.00
62694;BME280;48759;52.544;13.418;2023-02-13T07:46:50;103145.69;;;8.21;100.00
62694;BME280;48759;52.544;13.418;2023-02-13T07:49:18;103144.72;;;8.11;100.00
62694;BME280;48759;52.544;13.418;2023-02-13T07:51:45;103141.88;;;8.12;100.00
62694;BME280;48759;52.544;13.418;2023-02-13T07:54:12;103146.78;;;8.29;100.00
62694;BME280;48759;52.544;13.418;2023-02-13T07:56:39;103145.34;;;8.14;100.00
62694;BME280;48759;52.544;13.418;2023-02-13T07:59:05;103145.97;;;8.06;100.00
62694;BME280;48759;52.544;13.418;2023-02-13T08:01:32;103145.47;;;8.13;100.00
62694;BME280;48759;52.544;13.418;2023-02-13T08:03:59;103142.22;;;8.19;100.00
62694;BME280;48759;52.544;13.418;2023-02-13T08:06:27;103145.09;;;8.06;100.00
62694;BME280;48759;52.544;13.418;2023-02-13T08:08:54;103147.53;;;8.31;100.00
62694;BME280;48759;52.544;13.418;2023-02-13T08:11:35;103148.91;;;7.94;100.00
62694;BME280;48759;52.544;13.418;2023-02-13T08:14:20;103150.59;;;8.06;100.00
62694;BME280;48759;52.544;13.418;2023-02-13T08:16:47;103152.47;;;8.37;100.00
62694;BME280;48759;52.544;13.418;2023-02-13T08:19:14;103146.69;;;8.52;100.00
62694;BME280;48759;52.544;13.418;2023-02-13T08:21:42;103145.25;;;8.36;100.00
62694;BME280;48759;52.544;13.418;2023-02-13T08:24:09;103146.88;;;8.60;100.00
62694;BME280;48759;52.544;13.418;2023-02-13T08:26:36;103151.81;;;8.24;100.00
62694;BME280;48759;52.544;13.418;2023-02-13T08:29:03;103149.75;;;8.58;100.00
62694;BME280;48759;52.544;13.418;2023-02-13T08:31:30;103146.56;;;8.21;100.00
62694;BME280;48759;52.544;13.418;2023-02-13T08:33:57;103151.00;;;8.33;100.00
62694;BME280;48759;52.544;13.418;2023-02-13T08:36:24;103149.97;;;8.14;100.00
62694;BME280;48759;52.544;13.418;2023-02-13T08:38:52;103149.94;;;8.45;100.00
62694;BME280;48759;52.544;13.418;2023-02-13T08:41:19;103148.81;;;8.27;100.00
62694;BME280;48759;52.544;13.418;2023-02-13T08:43:47;103147.94;;;7.84;100.00
62694;BME280;48759;52.544;13.418;2023-02-13T08:46:14;103149.72;;;8.05;100.00
62694;BME280;48759;52.544;13.418;2023-02-13T08:48:41;103146.72;;;8.08;100.00
62694;BME280;48759;52.544;13.418;2023-02-13T08:51:08;103151.53;;;7.84;100.00
62694;BME280;48759;52.544;13.418;2023-02-13T08:53:36;103140.16;;;8.00;100.00
62694;BME280;48759;52.544;13.418;2023-02-13T08:56:05;103141.00;;;8.12;100.00
62694;BME280;48759;52.544;13.418;2023-02-13T08:58:32;103145.75;;;8.93;100.00
62694;BME280;48759;52.544;13.418;2023-02-13T09:00:59;103146.25;;;8.77;100.00
62694;BME280;48759;52.544;13.418;2023-02-13T09:03:26;103151.75;;;9.07;100.00
62694;BME280;48759;52.544;13.418;2023-02-13T09:05:57;103151.75;;;9.87;100.00
62694;BME280;48759;52.544;13.418;2023-02-13T09:08:24;103152.25;;;8.92;100.00
62694;BME280;48759;52.544;13.418;2023-02-13T09:10:55;103151.03;;;8.75;100.00
62694;BME280;48759;52.544;13.418;2023-02-13T09:13:23;103156.22;;;8.36;100.00
62694;BME280;48759;52.544;13.418;2023-02-13T09:15:50;103156.81;;;8.61;100.00
62694;BME280;48759;52.544;13.418;2023-02-13T09:18:16;103160.56;;;8.07;100.00
62694;BME280;48759;52.544;13.418;2023-02-13T09:20:43;103148.22;;;8.13;100.00
62694;BME280;48759;52.544;13.418;2023-02-13T09:23:10;103166.47;;;8.55;100.00
62694;BME280;48759;52.544;13.418;2023-02-13T09:25:36;103159.88;;;8.58;100.00
62694;BME280;48759;52.544;13.418;2023-02-13T09:28:03;103165.59;;;8.96;100.00
62694;BME280;48759;52.544;13.418;2023-02-13T09:30:31;103162.53;;;8.90;100.00
62694;BME280;48759;52.544;13.418;2023-02-13T09:32:58;103163.19;;;8.08;100.00
62694;BME280;48759;52.544;13.418;2023-02-13T09:35:24;103175.56;;;7.92;100.00
62694;BME280;48759;52.544;13.418;2023-02-13T09:37:53;103162.16;;;7.89;100.00
62694;BME280;48759;52.544;13.418;2023-02-13T09:40:23;103170.16;;;7.81;100.00
62694;BME280;48759;52.544;13.418;2023-02-13T09:42:51;103174.34;;;7.85;100.00
62694;BME280;48759;52.544;13.418;2023-02-13T09:45:19;103169.91;;;7.61;100.00
62694;BME280;48759;52.544;13.418;2023-02-13T09:47:49;103174.59;;;8.57;100.00
62694;BME280;48759;52.544;13.418;2023-02-13T09:50:18;103172.19;;;8.42;100.00
62694;BME280;48759;52.544;13.418;2023-02-13T09:52:48;103163.72;;;8.34;100.00
62694;BME280;48759;52.544;13.418;2023-02-13T09:55:17;103161.06;;;8.12;100.00
62694;BME280;48759;52.544;13.418;2023-02-13T09:57:50;103163.19;;;8.82;100.00
62694;BME280;48759;52.544;13.418;2023-02-13T10:00:20;103171.75;;;8.26;100.00
62694;BME280;48759;52.544;13.418;2023-02-13T10:03:06;103158.78;;;8.28;100.00
62694;BME280;48759;52.544;13.418;2023-02-13T10:05:51;103164.84;;;8.00;100.00
62694;BME280;48759;52.544;13.418;2023-02-13T10:08:32;103161.06;;;8.12;100.00
62694;BME280;48759;52.544;13.418;2023-02-13T10:11:05;103166.59;;;8.01;100.00
62694;BME280;48759;52.544;13.418;2023-02-13T10:13:47;103167.38;;;8.24;100.00
62694;BME280;48759;52.544;13.418;2023-02-13T10:16:18;103173.00;;;8.22;100.00
62694;BME280;48759;52.544;13.418;2023-02-13T10:18:49;103165.72;;;8.00;100.00
62694;BME280;48759;52.544;13.418;2023-02-13T10:21:20;103161.47;;;7.64;100.00
62694;BME280;48759;52.544;13.418;2023-02-13T10:23:53;103154.03;;;7.33;100.00
62694;BME280;48759;52.544;13.418;2023-02-13T10:26:22;103168.13;;;7.83;100.00
62694;BME280;48759;52.544;13.418;2023-02-13T10:28:56;103160.75;;;7.94;100.00
62694;BME280;48759;52.544;13.418;2023-02-13T10:31:45;103159.34;;;8.00;100.00
62694;BME280;48759;52.544;13.418;2023-02-13T10:34:16;103167.28;;;8.14;100.00
62694;BME280;48759;52.544;13.418;2023-02-13T10:36:45;103160.66;;;8.49;100.00
62694;BME280;48759;52.544;13.418;2023-02-13T10:39:21;103161.69;;;8.36;100.00
62694;BME280;48759;52.544;13.418;2023-02-13T10:41:51;103162.03;;;8.84;100.00
62694;BME280;48759;52.544;13.418;2023-02-13T10:44:31;103160.38;;;8.72;100.00
62694;BME280;48759;52.544;13.418;2023-02-13T10:47:05;103156.72;;;8.83;100.00
62694;BME280;48759;52.544;13.418;2023-02-13T10:49:46;103147.78;;;8.70;100.00
62694;BME280;48759;52.544;13.418;2023-02-13T10:52:24;103148.59;;;8.61;100.00
62694;BME280;48759;52.544;13.418;2023-02-13T10:55:07;103152.63;;;9.08;100.00
62694;BME280;48759;52.544;13.418;2023-02-13T10:57:56;103138.00;;;8.77;100.00
62694;BME280;48759;52.544;13.418;2023-02-13T11:00:34;103134.13;;;9.10;100.00
62694;BME280;48759;52.544;13.418;2023-02-13T11:03:03;103137.38;;;9.25;100.00
62694;BME280;48759;52.544;13.418;2023-02-13T11:05:34;103146.19;;;8.47;100.00
62694;BME280;48759;52.544;13.418;2023-02-13T11:08:04;103137.56;;;8.51;100.00
62694;BME280;48759;52.544;13.418;2023-02-13T11:10:40;103136.13;;;8.15;100.00
62694;BME280;48759;52.544;13.418;2023-02-13T11:13:15;103143.00;;;8.93;100.00
62694;BME280;48759;52.544;13.418;2023-02-13T11:15:55;103140.78;;;8.35;100.00
62694;BME280;48759;52.544;13.418;2023-02-13T11:18:24;103139.56;;;8.49;100.00
62694;BME280;48759;52.544;13.418;2023-02-13T11:21:00;103141.56;;;8.26;100.00
62694;BME280;48759;52.544;13.418;2023-02-13T11:23:37;103132.28;;;8.59;100.00
62694;BME280;48759;52.544;13.418;2023-02-13T11:26:07;103129.78;;;8.56;100.00
62694;BME280;48759;52.544;13.418;2023-02-13T11:28:36;103132.88;;;8.10;100.00
62694;BME280;48759;52.544;13.418;2023-02-13T11:31:28;103127.31;;;8.32;100.00
62694;BME280;48759;52.544;13.418;2023-02-13T11:33:56;103120.13;;;8.62;100.00
62694;BME280;48759;52.544;13.418;2023-02-13T11:36:27;103123.34;;;8.46;100.00
62694;BME280;48759;52.544;13.418;2023-02-13T11:38:59;103113.00;;;8.50;100.00
62694;BME280;48759;52.544;13.418;2023-02-13T11:41:27;103129.97;;;8.85;100.00
62694;BME280;48759;52.544;13.418;2023-02-13T11:43:55;103120.81;;;9.05;100.00
62694;BME280;48759;52.544;13.418;2023-02-13T11:46:27;103123.69;;;8.73;100.00
62694;BME280;48759;52.544;13.418;2023-02-13T11:48:57;103118.25;;;8.21;100.00
62694;BME280;48759;52.544;13.418;2023-02-13T11:51:37;103105.28;;;8.64;100.00
62694;BME280;48759;52.544;13.418;2023-02-13T11:54:04;103112.97;;;8.91;100.00
62694;BME280;48759;52.544;13.418;2023-02-13T11:56:47;103099.72;;;8.55;100.00
62694;BME280;48759;52.544;13.418;2023-02-13T11:59:14;103114.59;;;8.73;100.00
62694;BME280;48759;52.544;13.418;2023-02-13T12:01:41;103093.50;;;8.32;100.00
62694;BME280;48759;52.544;13.418;2023-02-13T12:04:14;103101.34;;;8.36;100.00
62694;BME280;48759;52.544;13.418;2023-02-13T12:06:58;103092.50;;;8.54;100.00
62694;BME280;48759;52.544;13.418;2023-02-13T12:09:26;103091.13;;;8.69;100.00
62694;BME280;48759;52.544;13.418;2023-02-13T12:11:56;103096.03;;;8.44;100.00
62694;BME280;48759;52.544;13.418;2023-02-13T12:14:25;103104.06;;;8.36;100.00
62694;BME280;48759;52.544;13.418;2023-02-13T12:16:55;103110.53;;;8.26;100.00
62694;BME280;48759;52.544;13.418;2023-02-13T12:19:27;103097.19;;;8.21;100.00
62694;BME280;48759;52.544;13.418;2023-02-13T12:22:17;103106.59;;;8.07;100.00
62694;BME280;48759;52.544;13.418;2023-02-13T12:25:01;103105.78;;;7.96;100.00
62694;BME280;48759;52.544;13.418;2023-02-13T12:27:43;103108.97;;;7.80;100.00
62694;BME280;48759;52.544;13.418;2023-02-13T12:30:38;103109.31;;;7.76;100.00
62694;BME280;48759;52.544;13.418;2023-02-13T12:33:18;103103.72;;;8.09;100.00
62694;BME280;48759;52.544;13.418;2023-02-13T12:35:56;103108.06;;;8.12;100.00
62694;BME280;48759;52.544;13.418;2023-02-13T12:38:37;103107.00;;;8.03;100.00
62694;BME280;48759;52.544;13.418;2023-02-13T12:41:19;103101.00;;;7.98;100.00
62694;BME280;48759;52.544;13.418;2023-02-13T12:44:05;103113.25;;;7.94;100.00
62694;BME280;48759;52.544;13.418;2023-02-13T12:46:36;103111.97;;;7.98;100.00
62694;BME280;48759;52.544;13.418;2023-02-13T12:49:18;103114.94;;;8.06;100.00
62694;BME280;48759;52.544;13.418;2023-02-13T12:51:56;103098.13;;;8.31;100.00
62694;BME280;48759;52.544;13.418;2023-02-13T12:54:39;103105.22;;;8.13;100.00
62694;BME280;48759;52.544;13.418;2023-02-13T12:57:17;103103.06;;;8.37;100.00
62694;BME280;48759;52.544;13.418;2023-02-13T12:59:59;103102.22;;;8.05;100.00
62694;BME280;48759;52.544;13.418;2023-02-13T13:02:48;103095.19;;;8.23;100.00